sensor_id;sensor_type;location;lat;lon;timestamp;temperature;humidity
25138;DHT22;13112;50.986;4.354;2022-07-22T00:00:11;16.90;99.90
25138;DHT22;13112;50.986;4.354;2022-07-22T00:02:37;16.90;99.90
25138;DHT22;13112;50.986;4.354;2022-07-22T00:05:03;16.70;99.90
25138;DHT22;13112;50.986;4.354;2022-07-22T00:07:29;16.70;99.90
25138;DHT22;13112;50.986;4.354;2022-07-22T00:09:55;16.70;99.90
25138;DHT22;13112;50.986;4.354;2022-07-22T00:12:20;16.70;99.90
25138;DHT22;13112;50.986;4.354;2022-07-22T00:14:46;16.70;99.90
25138;DHT22;13112;50.986;4.354;2022-07-22T00:17:12;16.70;99.90
25138;DHT22;13112;50.986;4.354;2022-07-22T00:19:37;16.50;99.90
25138;DHT22;13112;50.986;4.354;2022-07-22T00:22:03;16.40;99.90
25138;DHT22;13112;50.986;4.354;2022-07-22T00:24:29;16.40;99.90
25138;DHT22;13112;50.986;4.354;2022-07-22T00:26:55;16.40;99.90
25138;DHT22;13112;50.986;4.354;2022-07-22T00:29:20;16.30;99.90
25138;DHT22;13112;50.986;4.354;2022-07-22T00:31:46;16.30;99.90
25138;DHT22;13112;50.986;4.354;2022-07-22T00:34:12;16.30;99.90
25138;DHT22;13112;50.986;4.354;2022-07-22T00:36:37;16.20;99.90
25138;DHT22;13112;50.986;4.354;2022-07-22T00:39:03;16.20;99.90
25138;DHT22;13112;50.986;4.354;2022-07-22T00:41:29;16.10;99.90
25138;DHT22;13112;50.986;4.354;2022-07-22T00:43:59;16.10;99.90
25138;DHT22;13112;50.986;4.354;2022-07-22T00:46:25;16.00;99.90
25138;DHT22;13112;50.986;4.354;2022-07-22T00:48:53;16.00;99.90
25138;DHT22;13112;50.986;4.354;2022-07-22T00:51:19;15.90;99.90
25138;DHT22;13112;50.986;4.354;2022-07-22T00:53:46;15.90;99.90
25138;DHT22;13112;50.986;4.354;2022-07-22T00:56:13;15.80;99.90
25138;DHT22;13112;50.986;4.354;2022-07-22T00:58:39;15.80;99.90
25138;DHT22;13112;50.986;4.354;2022-07-22T01:01:05;15.70;99.90
25138;DHT22;13112;50.986;4.354;2022-07-22T01:03:31;15.70;99.90
25138;DHT22;13112;50.986;4.354;2022-07-22T01:05:57;15.70;99.90
25138;DHT22;13112;50.986;4.354;2022-07-22T01:08:23;15.70;99.90
25138;DHT22;13112;50.986;4.354;2022-07-22T01:10:49;15.70;99.90
25138;DHT22;13112;50.986;4.354;2022-07-22T01:13:15;15.70;99.90
25138;DHT22;13112;50.986;4.354;2022-07-22T01:15:40;15.80;99.90
25138;DHT22;13112;50.986;4.354;2022-07-22T01:18:06;15.70;99.90
25138;DHT22;13112;50.986;4.354;2022-07-22T01:20:31;15.70;99.90
25138;DHT22;13112;50.986;4.354;2022-07-22T01:22:57;15.60;99.90
25138;DHT22;13112;50.986;4.354;2022-07-22T01:25:23;15.60;99.90
25138;DHT22;13112;50.986;4.354;2022-07-22T01:27:48;15.50;99.90
25138;DHT22;13112;50.986;4.354;2022-07-22T01:30:14;15.60;99.90
25138;DHT22;13112;50.986;4.354;2022-07-22T01:32:40;15.40;99.90
25138;DHT22;13112;50.986;4.354;2022-07-22T01:35:05;15.50;99.90
25138;DHT22;13112;50.986;4.354;2022-07-22T01:37:33;15.50;99.90
25138;DHT22;13112;50.986;4.354;2022-07-22T01:39:59;15.60;99.90
25138;DHT22;13112;50.986;4.354;2022-07-22T01:42:25;15.60;99.90
25138;DHT22;13112;50.986;4.354;2022-07-22T01:44:51;15.60;99.90
25138;DHT22;13112;50.986;4.354;2022-07-22T01:47:17;15.60;99.90
25138;DHT22;13112;50.986;4.354;2022-07-22T01:49:42;15.50;99.90
25138;DHT22;13112;50.986;4.354;2022-07-22T01:52:08;15.50;99.90
25138;DHT22;13112;50.986;4.354;2022-07-22T01:54:34;15.50;99.90
25138;DHT22;13112;50.986;4.354;2022-07-22T01:57:00;15.40;99.90
25138;DHT22;13112;50.986;4.354;2022-07-22T01:59:26;15.40;99.90
25138;DHT22;13112;50.986;4.354;2022-07-22T02:01:51;15.40;99.90
25138;DHT22;13112;50.986;4.354;2022-07-22T02:04:17;15.40;99.90
25138;DHT22;13112;50.986;4.354;2022-07-22T02:06:43;15.40;99.90
25138;DHT22;13112;50.986;4.354;2022-07-22T02:09:08;15.30;99.90
25138;DHT22;13112;50.986;4.354;2022-07-22T02:11:34;15.30;99.90
25138;DHT22;13112;50.986;4.354;2022-07-22T02:14:00;15.30;99.90
25138;DHT22;13112;50.986;4.354;2022-07-22T02:16:25;15.30;99.90
25138;DHT22;13112;50.986;4.354;2022-07-22T02:18:51;15.20;99.90
25138;DHT22;13112;50.986;4.354;2022-07-22T02:21:17;15.30;99.90
25138;DHT22;13112;50.986;4.354;2022-07-22T02:23:43;15.20;99.90
25138;DHT22;13112;50.986;4.354;2022-07-22T02:26:09;15.10;99.90
25138;DHT22;13112;50.986;4.354;2022-07-22T02:28:35;15.10;99.90
25138;DHT22;13112;50.986;4.354;2022-07-22T02:31:01;14.90;99.90
25138;DHT22;13112;50.986;4.354;2022-07-22T02:33:26;14.80;99.90
25138;DHT22;13112;50.986;4.354;2022-07-22T02:35:52;14.90;99.90
25138;DHT22;13112;50.986;4.354;2022-07-22T02:38:18;15.00;99.90
25138;DHT22;13112;50.986;4.354;2022-07-22T02:40:43;15.00;99.90
25138;DHT22;13112;50.986;4.354;2022-07-22T02:43:09;14.90;99.90
25138;DHT22;13112;50.986;4.354;2022-07-22T02:45:35;14.90;99.90
25138;DHT22;13112;50.986;4.354;2022-07-22T02:48:00;14.90;99.90
25138;DHT22;13112;50.986;4.354;2022-07-22T02:50:27;14.90;99.90
25138;DHT22;13112;50.986;4.354;2022-07-22T02:52:53;14.90;99.90
25138;DHT22;13112;50.986;4.354;2022-07-22T02:55:18;14.90;99.90
25138;DHT22;13112;50.986;4.354;2022-07-22T02:57:44;14.80;99.90
25138;DHT22;13112;50.986;4.354;2022-07-22T03:00:12;14.80;99.90
25138;DHT22;13112;50.986;4.354;2022-07-22T03:02:38;14.80;99.90
25138;DHT22;13112;50.986;4.354;2022-07-22T03:05:05;14.70;99.90
25138;DHT22;13112;50.986;4.354;2022-07-22T03:07:31;14.70;99.90
25138;DHT22;13112;50.986;4.354;2022-07-22T03:09:57;14.70;99.90
25138;DHT22;13112;50.986;4.354;2022-07-22T03:12:23;14.70;99.90
25138;DHT22;13112;50.986;4.354;2022-07-22T03:14:48;14.60;99.90
25138;DHT22;13112;50.986;4.354;2022-07-22T03:17:14;14.60;99.90
25138;DHT22;13112;50.986;4.354;2022-07-22T03:19:40;14.60;99.90
25138;DHT22;13112;50.986;4.354;2022-07-22T03:22:05;14.60;99.90
25138;DHT22;13112;50.986;4.354;2022-07-22T03:24:31;14.70;99.90
25138;DHT22;13112;50.986;4.354;2022-07-22T03:26:57;14.70;99.90
25138;DHT22;13112;50.986;4.354;2022-07-22T03:29:23;14.70;99.90
25138;DHT22;13112;50.986;4.354;2022-07-22T03:31:48;14.60;99.90
25138;DHT22;13112;50.986;4.354;2022-07-22T03:34:14;14.60;99.90
25138;DHT22;13112;50.986;4.354;2022-07-22T03:36:39;14.50;99.90
25138;DHT22;13112;50.986;4.354;2022-07-22T03:39:05;14.50;99.90
25138;DHT22;13112;50.986;4.354;2022-07-22T03:41:31;14.50;99.90
25138;DHT22;13112;50.986;4.354;2022-07-22T03:43:56;14.30;99.90
25138;DHT22;13112;50.986;4.354;2022-07-22T03:46:22;14.30;99.90
25138;DHT22;13112;50.986;4.354;2022-07-22T03:48:48;14.30;99.90
25138;DHT22;13112;50.986;4.354;2022-07-22T03:51:13;14.30;99.90
25138;DHT22;13112;50.986;4.354;2022-07-22T03:53:39;14.30;99.90
25138;DHT22;13112;50.986;4.354;2022-07-22T03:56:05;14.30;99.90
25138;DHT22;13112;50.986;4.354;2022-07-22T03:58:31;14.40;99.90
25138;DHT22;13112;50.986;4.354;2022-07-22T04:00:57;14.40;99.90
25138;DHT22;13112;50.986;4.354;2022-07-22T04:03:22;14.40;99.90
25138;DHT22;13112;50.986;4.354;2022-07-22T04:05:48;14.50;99.90
25138;DHT22;13112;50.986;4.354;2022-07-22T04:08:15;14.50;99.90
25138;DHT22;13112;50.986;4.354;2022-07-22T04:10:41;14.50;99.90
25138;DHT22;13112;50.986;4.354;2022-07-22T04:13:06;14.60;99.90
25138;DHT22;13112;50.986;4.354;2022-07-22T04:15:32;14.60;99.90
25138;DHT22;13112;50.986;4.354;2022-07-22T04:17:58;14.70;99.90
25138;DHT22;13112;50.986;4.354;2022-07-22T04:20:23;14.70;99.90
25138;DHT22;13112;50.986;4.354;2022-07-22T04:22:49;14.70;99.90
25138;DHT22;13112;50.986;4.354;2022-07-22T04:25:15;14.80;99.90
25138;DHT22;13112;50.986;4.354;2022-07-22T04:27:41;14.80;99.90
25138;DHT22;13112;50.986;4.354;2022-07-22T04:30:07;14.80;99.90
25138;DHT22;13112;50.986;4.354;2022-07-22T04:32:33;14.60;99.90
25138;DHT22;13112;50.986;4.354;2022-07-22T04:34:58;14.50;99.90
25138;DHT22;13112;50.986;4.354;2022-07-22T04:37:24;14.50;99.90
25138;DHT22;13112;50.986;4.354;2022-07-22T04:39:50;14.60;99.90
25138;DHT22;13112;50.986;4.354;2022-07-22T04:42:15;14.80;99.90
25138;DHT22;13112;50.986;4.354;2022-07-22T04:44:41;14.90;99.90
25138;DHT22;13112;50.986;4.354;2022-07-22T04:47:06;15.10;99.90
25138;DHT22;13112;50.986;4.354;2022-07-22T04:49:32;15.10;99.90
25138;DHT22;13112;50.986;4.354;2022-07-22T04:51:58;15.20;99.90
25138;DHT22;13112;50.986;4.354;2022-07-22T04:54:23;15.30;99.90
25138;DHT22;13112;50.986;4.354;2022-07-22T04:56:49;15.50;99.90
25138;DHT22;13112;50.986;4.354;2022-07-22T04:59:15;15.60;99.90
25138;DHT22;13112;50.986;4.354;2022-07-22T05:01:40;15.80;99.90
25138;DHT22;13112;50.986;4.354;2022-07-22T05:04:06;15.90;99.90
25138;DHT22;13112;50.986;4.354;2022-07-22T05:06:32;16.00;99.90
25138;DHT22;13112;50.986;4.354;2022-07-22T05:08:58;16.10;99.90
25138;DHT22;13112;50.986;4.354;2022-07-22T05:11:23;16.20;99.90
25138;DHT22;13112;50.986;4.354;2022-07-22T05:13:49;16.40;99.90
25138;DHT22;13112;50.986;4.354;2022-07-22T05:16:14;16.40;99.90
25138;DHT22;13112;50.986;4.354;2022-07-22T05:18:40;16.60;99.90
25138;DHT22;13112;50.986;4.354;2022-07-22T05:21:06;16.70;99.90
25138;DHT22;13112;50.986;4.354;2022-07-22T05:23:32;16.90;99.90
25138;DHT22;13112;50.986;4.354;2022-07-22T05:25:57;16.90;99.90
25138;DHT22;13112;50.986;4.354;2022-07-22T05:28:23;17.00;99.90
25138;DHT22;13112;50.986;4.354;2022-07-22T05:30:49;17.10;99.90
25138;DHT22;13112;50.986;4.354;2022-07-22T05:33:15;17.30;99.90
25138;DHT22;13112;50.986;4.354;2022-07-22T05:35:41;17.30;99.90
25138;DHT22;13112;50.986;4.354;2022-07-22T05:38:07;17.40;99.90
25138;DHT22;13112;50.986;4.354;2022-07-22T05:40:32;17.50;99.90
25138;DHT22;13112;50.986;4.354;2022-07-22T05:42:59;17.70;99.90
25138;DHT22;13112;50.986;4.354;2022-07-22T05:45:24;17.90;99.90
25138;DHT22;13112;50.986;4.354;2022-07-22T05:47:50;18.00;99.90
25138;DHT22;13112;50.986;4.354;2022-07-22T05:50:16;18.20;99.90
25138;DHT22;13112;50.986;4.354;2022-07-22T05:52:41;18.40;99.90
25138;DHT22;13112;50.986;4.354;2022-07-22T05:55:08;18.70;99.90
25138;DHT22;13112;50.986;4.354;2022-07-22T05:57:34;18.90;99.90
25138;DHT22;13112;50.986;4.354;2022-07-22T05:59:59;19.10;99.90
25138;DHT22;13112;50.986;4.354;2022-07-22T06:02:25;19.20;99.90
25138;DHT22;13112;50.986;4.354;2022-07-22T06:04:51;19.20;99.90
25138;DHT22;13112;50.986;4.354;2022-07-22T06:07:17;19.40;99.90
25138;DHT22;13112;50.986;4.354;2022-07-22T06:09:43;19.40;99.90
25138;DHT22;13112;50.986;4.354;2022-07-22T06:12:08;19.80;99.90
25138;DHT22;13112;50.986;4.354;2022-07-22T06:14:34;20.20;99.90
25138;DHT22;13112;50.986;4.354;2022-07-22T06:17:02;20.40;99.90
25138;DHT22;13112;50.986;4.354;2022-07-22T06:19:27;20.90;99.90
25138;DHT22;13112;50.986;4.354;2022-07-22T06:21:55;21.40;99.90
25138;DHT22;13112;50.986;4.354;2022-07-22T06:24:21;21.90;99.90
25138;DHT22;13112;50.986;4.354;2022-07-22T06:26:46;22.60;99.90
25138;DHT22;13112;50.986;4.354;2022-07-22T06:29:12;23.00;99.90
25138;DHT22;13112;50.986;4.354;2022-07-22T06:31:38;23.40;99.90
25138;DHT22;13112;50.986;4.354;2022-07-22T06:34:03;24.20;99.90
25138;DHT22;13112;50.986;4.354;2022-07-22T06:36:33;25.00;99.90
25138;DHT22;13112;50.986;4.354;2022-07-22T06:38:58;25.20;99.90
25138;DHT22;13112;50.986;4.354;2022-07-22T06:41:25;25.60;99.90
25138;DHT22;13112;50.986;4.354;2022-07-22T06:43:51;25.70;99.90
25138;DHT22;13112;50.986;4.354;2022-07-22T06:46:17;26.00;99.90
25138;DHT22;13112;50.986;4.354;2022-07-22T06:48:43;25.70;99.90
25138;DHT22;13112;50.986;4.354;2022-07-22T06:51:08;25.90;99.90
25138;DHT22;13112;50.986;4.354;2022-07-22T06:53:34;26.30;99.90
25138;DHT22;13112;50.986;4.354;2022-07-22T06:56:00;26.50;99.90
25138;DHT22;13112;50.986;4.354;2022-07-22T06:58:26;27.00;99.90
25138;DHT22;13112;50.986;4.354;2022-07-22T07:00:52;27.80;99.90
25138;DHT22;13112;50.986;4.354;2022-07-22T07:03:17;28.10;99.90
25138;DHT22;13112;50.986;4.354;2022-07-22T07:05:43;28.30;99.90
25138;DHT22;13112;50.986;4.354;2022-07-22T07:08:09;28.70;99.90
25138;DHT22;13112;50.986;4.354;2022-07-22T07:10:35;29.50;99.90
25138;DHT22;13112;50.986;4.354;2022-07-22T07:13:01;29.90;99.90
25138;DHT22;13112;50.986;4.354;2022-07-22T07:15:28;30.00;99.90
25138;DHT22;13112;50.986;4.354;2022-07-22T07:17:55;30.10;99.90
25138;DHT22;13112;50.986;4.354;2022-07-22T07:20:22;29.50;99.90
25138;DHT22;13112;50.986;4.354;2022-07-22T07:22:48;29.20;99.90
25138;DHT22;13112;50.986;4.354;2022-07-22T07:25:14;28.20;99.90
25138;DHT22;13112;50.986;4.354;2022-07-22T07:27:40;27.20;99.90
25138;DHT22;13112;50.986;4.354;2022-07-22T07:30:06;26.80;99.90
25138;DHT22;13112;50.986;4.354;2022-07-22T07:32:32;26.30;99.90
25138;DHT22;13112;50.986;4.354;2022-07-22T07:34:58;25.50;99.90
25138;DHT22;13112;50.986;4.354;2022-07-22T07:37:24;25.20;99.90
25138;DHT22;13112;50.986;4.354;2022-07-22T07:39:49;24.80;99.90
25138;DHT22;13112;50.986;4.354;2022-07-22T07:42:15;24.50;99.90
25138;DHT22;13112;50.986;4.354;2022-07-22T07:44:41;24.20;99.90
25138;DHT22;13112;50.986;4.354;2022-07-22T07:47:07;24.10;99.90
25138;DHT22;13112;50.986;4.354;2022-07-22T07:49:32;24.10;99.90
25138;DHT22;13112;50.986;4.354;2022-07-22T07:51:58;24.20;99.90
25138;DHT22;13112;50.986;4.354;2022-07-22T07:54:24;24.30;99.90
25138;DHT22;13112;50.986;4.354;2022-07-22T07:56:50;24.10;99.90
25138;DHT22;13112;50.986;4.354;2022-07-22T07:59:15;24.30;99.90
25138;DHT22;13112;50.986;4.354;2022-07-22T08:01:42;24.20;99.90
25138;DHT22;13112;50.986;4.354;2022-07-22T08:04:08;23.70;99.90
25138;DHT22;13112;50.986;4.354;2022-07-22T08:06:34;23.60;99.90
25138;DHT22;13112;50.986;4.354;2022-07-22T08:09:00;23.80;99.90
25138;DHT22;13112;50.986;4.354;2022-07-22T08:11:25;23.80;99.90
25138;DHT22;13112;50.986;4.354;2022-07-22T08:13:51;23.60;99.90
25138;DHT22;13112;50.986;4.354;2022-07-22T08:16:17;23.30;99.90
25138;DHT22;13112;50.986;4.354;2022-07-22T08:18:42;23.10;99.90
25138;DHT22;13112;50.986;4.354;2022-07-22T08:21:08;23.60;99.90
25138;DHT22;13112;50.986;4.354;2022-07-22T08:23:34;23.90;99.90
25138;DHT22;13112;50.986;4.354;2022-07-22T08:26:00;23.90;99.90
25138;DHT22;13112;50.986;4.354;2022-07-22T08:28:26;23.60;99.90
25138;DHT22;13112;50.986;4.354;2022-07-22T08:30:52;23.70;99.90
25138;DHT22;13112;50.986;4.354;2022-07-22T08:33:18;23.80;99.90
25138;DHT22;13112;50.986;4.354;2022-07-22T08:35:43;23.80;99.90
25138;DHT22;13112;50.986;4.354;2022-07-22T08:38:09;24.20;99.90
25138;DHT22;13112;50.986;4.354;2022-07-22T08:40:35;25.00;99.90
25138;DHT22;13112;50.986;4.354;2022-07-22T08:43:00;25.80;99.90
25138;DHT22;13112;50.986;4.354;2022-07-22T08:45:29;26.20;99.90
25138;DHT22;13112;50.986;4.354;2022-07-22T08:47:55;27.00;99.90
25138;DHT22;13112;50.986;4.354;2022-07-22T08:50:22;27.40;99.90
25138;DHT22;13112;50.986;4.354;2022-07-22T08:52:48;27.20;99.90
25138;DHT22;13112;50.986;4.354;2022-07-22T08:55:14;26.50;99.90
25138;DHT22;13112;50.986;4.354;2022-07-22T08:57:47;26.00;99.90
25138;DHT22;13112;50.986;4.354;2022-07-22T09:00:19;25.70;99.90
25138;DHT22;13112;50.986;4.354;2022-07-22T09:02:44;25.50;99.90
25138;DHT22;13112;50.986;4.354;2022-07-22T09:05:12;25.80;99.90
25138;DHT22;13112;50.986;4.354;2022-07-22T09:07:45;26.70;99.90
25138;DHT22;13112;50.986;4.354;2022-07-22T09:10:18;27.50;99.90
25138;DHT22;13112;50.986;4.354;2022-07-22T09:12:56;28.40;99.90
25138;DHT22;13112;50.986;4.354;2022-07-22T09:15:29;28.60;99.90
25138;DHT22;13112;50.986;4.354;2022-07-22T09:17:55;28.90;99.90
25138;DHT22;13112;50.986;4.354;2022-07-22T09:20:21;28.30;99.90
25138;DHT22;13112;50.986;4.354;2022-07-22T09:22:51;27.10;99.90
25138;DHT22;13112;50.986;4.354;2022-07-22T09:25:33;26.40;99.90
25138;DHT22;13112;50.986;4.354;2022-07-22T09:30:31;26.60;99.90
25138;DHT22;13112;50.986;4.354;2022-07-22T09:32:57;26.60;99.90
25138;DHT22;13112;50.986;4.354;2022-07-22T09:35:23;26.50;99.90
25138;DHT22;13112;50.986;4.354;2022-07-22T09:37:52;26.50;99.90
25138;DHT22;13112;50.986;4.354;2022-07-22T09:40:23;26.40;99.90
25138;DHT22;13112;50.986;4.354;2022-07-22T09:42:52;26.50;99.90
25138;DHT22;13112;50.986;4.354;2022-07-22T09:45:19;26.70;99.90
25138;DHT22;13112;50.986;4.354;2022-07-22T09:47:46;27.20;99.90
25138;DHT22;13112;50.986;4.354;2022-07-22T09:50:20;27.50;99.90
25138;DHT22;13112;50.986;4.354;2022-07-22T09:52:48;27.80;99.90
25138;DHT22;13112;50.986;4.354;2022-07-22T09:55:16;28.20;99.90
25138;DHT22;13112;50.986;4.354;2022-07-22T09:57:43;28.50;99.90
25138;DHT22;13112;50.986;4.354;2022-07-22T10:00:09;28.90;99.90
25138;DHT22;13112;50.986;4.354;2022-07-22T10:05:14;29.60;99.90
25138;DHT22;13112;50.986;4.354;2022-07-22T10:07:41;30.60;99.10
25138;DHT22;13112;50.986;4.354;2022-07-22T10:10:10;30.50;97.90
25138;DHT22;13112;50.986;4.354;2022-07-22T10:12:37;30.90;97.10
25138;DHT22;13112;50.986;4.354;2022-07-22T10:15:04;30.70;95.70
25138;DHT22;13112;50.986;4.354;2022-07-22T10:17:30;30.50;96.30
25138;DHT22;13112;50.986;4.354;2022-07-22T10:19:57;30.90;95.90
25138;DHT22;13112;50.986;4.354;2022-07-22T10:25:08;31.00;95.60
25138;DHT22;13112;50.986;4.354;2022-07-22T10:30:19;29.50;95.30
25138;DHT22;13112;50.986;4.354;2022-07-22T10:32:45;29.50;96.20
25138;DHT22;13112;50.986;4.354;2022-07-22T10:37:38;30.10;95.70
25138;DHT22;13112;50.986;4.354;2022-07-22T10:40:15;30.70;95.80
25138;DHT22;13112;50.986;4.354;2022-07-22T10:45:26;33.00;93.60
25138;DHT22;13112;50.986;4.354;2022-07-22T10:48:00;33.80;91.90
25138;DHT22;13112;50.986;4.354;2022-07-22T10:55:29;32.70;90.70
25138;DHT22;13112;50.986;4.354;2022-07-22T10:57:54;33.40;90.30
25138;DHT22;13112;50.986;4.354;2022-07-22T11:00:20;33.90;91.50
25138;DHT22;13112;50.986;4.354;2022-07-22T11:02:46;34.80;88.90
25138;DHT22;13112;50.986;4.354;2022-07-22T11:05:12;35.00;85.50
25138;DHT22;13112;50.986;4.354;2022-07-22T11:07:42;34.50;82.00
25138;DHT22;13112;50.986;4.354;2022-07-22T11:10:17;33.70;84.60
25138;DHT22;13112;50.986;4.354;2022-07-22T11:12:43;32.70;87.70
25138;DHT22;13112;50.986;4.354;2022-07-22T11:15:09;32.50;88.20
25138;DHT22;13112;50.986;4.354;2022-07-22T11:17:36;33.60;87.90
25138;DHT22;13112;50.986;4.354;2022-07-22T11:20:04;34.50;84.20
25138;DHT22;13112;50.986;4.354;2022-07-22T11:22:31;35.40;82.90
25138;DHT22;13112;50.986;4.354;2022-07-22T11:24:57;35.30;82.10
25138;DHT22;13112;50.986;4.354;2022-07-22T11:27:24;34.70;82.20
25138;DHT22;13112;50.986;4.354;2022-07-22T11:29:53;34.60;81.60
25138;DHT22;13112;50.986;4.354;2022-07-22T11:32:20;34.40;84.50
25138;DHT22;13112;50.986;4.354;2022-07-22T11:34:47;33.50;83.70
25138;DHT22;13112;50.986;4.354;2022-07-22T11:37:23;33.20;85.30
25138;DHT22;13112;50.986;4.354;2022-07-22T11:40:00;33.10;82.50
25138;DHT22;13112;50.986;4.354;2022-07-22T11:42:27;33.10;82.10
25138;DHT22;13112;50.986;4.354;2022-07-22T11:44:52;32.70;83.10
25138;DHT22;13112;50.986;4.354;2022-07-22T11:47:18;32.20;83.80
25138;DHT22;13112;50.986;4.354;2022-07-22T11:49:46;32.10;85.00
25138;DHT22;13112;50.986;4.354;2022-07-22T11:52:15;31.80;86.40
25138;DHT22;13112;50.986;4.354;2022-07-22T11:54:42;31.20;86.40
25138;DHT22;13112;50.986;4.354;2022-07-22T11:57:07;31.10;88.00
25138;DHT22;13112;50.986;4.354;2022-07-22T11:59:34;31.00;87.30
25138;DHT22;13112;50.986;4.354;2022-07-22T12:02:01;31.00;87.90
25138;DHT22;13112;50.986;4.354;2022-07-22T12:04:28;31.10;87.50
25138;DHT22;13112;50.986;4.354;2022-07-22T12:06:55;30.40;87.50
25138;DHT22;13112;50.986;4.354;2022-07-22T12:09:24;30.20;90.50
25138;DHT22;13112;50.986;4.354;2022-07-22T12:11:53;30.60;90.10
25138;DHT22;13112;50.986;4.354;2022-07-22T12:14:24;30.70;88.30
25138;DHT22;13112;50.986;4.354;2022-07-22T12:19:23;31.10;87.70
25138;DHT22;13112;50.986;4.354;2022-07-22T12:22:19;31.10;90.50
25138;DHT22;13112;50.986;4.354;2022-07-22T12:24:46;30.60;88.40
25138;DHT22;13112;50.986;4.354;2022-07-22T12:27:22;30.80;88.10
25138;DHT22;13112;50.986;4.354;2022-07-22T12:29:49;30.80;87.30
25138;DHT22;13112;50.986;4.354;2022-07-22T12:32:18;31.00;89.60
25138;DHT22;13112;50.986;4.354;2022-07-22T12:35:15;31.40;87.60
25138;DHT22;13112;50.986;4.354;2022-07-22T12:37:43;32.00;88.00
25138;DHT22;13112;50.986;4.354;2022-07-22T12:40:18;32.00;86.50
25138;DHT22;13112;50.986;4.354;2022-07-22T12:43:07;32.10;88.50
25138;DHT22;13112;50.986;4.354;2022-07-22T12:45:34;32.00;86.60
25138;DHT22;13112;50.986;4.354;2022-07-22T12:53:25;31.30;87.40
25138;DHT22;13112;50.986;4.354;2022-07-22T12:55:56;31.00;90.30
25138;DHT22;13112;50.986;4.354;2022-07-22T12:58:28;31.20;89.70
25138;DHT22;13112;50.986;4.354;2022-07-22T13:00:56;31.30;87.60
25138;DHT22;13112;50.986;4.354;2022-07-22T13:03:22;31.80;88.30
25138;DHT22;13112;50.986;4.354;2022-07-22T13:05:55;32.20;88.80
25138;DHT22;13112;50.986;4.354;2022-07-22T13:08:22;32.50;86.30
25138;DHT22;13112;50.986;4.354;2022-07-22T13:10:52;32.50;87.60
25138;DHT22;13112;50.986;4.354;2022-07-22T13:13:19;32.70;88.20
25138;DHT22;13112;50.986;4.354;2022-07-22T13:15:46;32.20;85.60
25138;DHT22;13112;50.986;4.354;2022-07-22T13:18:12;31.80;88.20
25138;DHT22;13112;50.986;4.354;2022-07-22T13:20:38;32.00;88.80
25138;DHT22;13112;50.986;4.354;2022-07-22T13:23:04;31.80;89.50
25138;DHT22;13112;50.986;4.354;2022-07-22T13:25:29;31.40;88.90
25138;DHT22;13112;50.986;4.354;2022-07-22T13:27:56;31.10;89.60
25138;DHT22;13112;50.986;4.354;2022-07-22T13:30:22;30.80;88.00
25138;DHT22;13112;50.986;4.354;2022-07-22T13:32:48;30.90;89.70
25138;DHT22;13112;50.986;4.354;2022-07-22T13:35:15;30.90;90.50
25138;DHT22;13112;50.986;4.354;2022-07-22T13:37:41;30.90;90.50
25138;DHT22;13112;50.986;4.354;2022-07-22T13:40:07;31.10;90.40
25138;DHT22;13112;50.986;4.354;2022-07-22T13:42:33;30.90;88.50
25138;DHT22;13112;50.986;4.354;2022-07-22T13:44:59;30.60;88.30
25138;DHT22;13112;50.986;4.354;2022-07-22T13:47:24;30.20;89.10
25138;DHT22;13112;50.986;4.354;2022-07-22T13:49:53;30.10;90.20
25138;DHT22;13112;50.986;4.354;2022-07-22T13:52:18;30.10;90.30
25138;DHT22;13112;50.986;4.354;2022-07-22T13:54:44;29.90;91.90
25138;DHT22;13112;50.986;4.354;2022-07-22T13:57:10;29.60;90.80
25138;DHT22;13112;50.986;4.354;2022-07-22T13:59:37;29.20;92.60
25138;DHT22;13112;50.986;4.354;2022-07-22T14:02:03;29.20;91.50
25138;DHT22;13112;50.986;4.354;2022-07-22T14:04:28;29.50;91.80
25138;DHT22;13112;50.986;4.354;2022-07-22T14:06:54;29.60;92.40
25138;DHT22;13112;50.986;4.354;2022-07-22T14:09:20;29.80;91.60
25138;DHT22;13112;50.986;4.354;2022-07-22T14:11:46;30.20;91.10
25138;DHT22;13112;50.986;4.354;2022-07-22T14:14:11;30.10;91.40
25138;DHT22;13112;50.986;4.354;2022-07-22T14:16:38;29.60;90.50
25138;DHT22;13112;50.986;4.354;2022-07-22T14:19:12;29.30;91.10
25138;DHT22;13112;50.986;4.354;2022-07-22T14:21:40;29.10;92.30
25138;DHT22;13112;50.986;4.354;2022-07-22T14:24:07;29.10;92.60
25138;DHT22;13112;50.986;4.354;2022-07-22T14:26:34;28.90;92.30
25138;DHT22;13112;50.986;4.354;2022-07-22T14:29:01;28.70;92.30
25138;DHT22;13112;50.986;4.354;2022-07-22T14:31:27;28.60;92.80
25138;DHT22;13112;50.986;4.354;2022-07-22T14:33:54;28.50;93.10
25138;DHT22;13112;50.986;4.354;2022-07-22T14:36:20;28.50;92.90
25138;DHT22;13112;50.986;4.354;2022-07-22T14:38:46;28.40;92.70
25138;DHT22;13112;50.986;4.354;2022-07-22T14:41:11;28.00;92.90
25138;DHT22;13112;50.986;4.354;2022-07-22T14:43:37;27.70;93.50
25138;DHT22;13112;50.986;4.354;2022-07-22T14:46:04;27.60;94.20
25138;DHT22;13112;50.986;4.354;2022-07-22T14:48:32;27.50;94.00
25138;DHT22;13112;50.986;4.354;2022-07-22T14:50:58;27.70;93.50
25138;DHT22;13112;50.986;4.354;2022-07-22T14:53:24;27.70;94.50
25138;DHT22;13112;50.986;4.354;2022-07-22T14:55:50;27.70;94.70
25138;DHT22;13112;50.986;4.354;2022-07-22T14:58:15;27.60;95.00
25138;DHT22;13112;50.986;4.354;2022-07-22T15:00:41;27.70;94.10
25138;DHT22;13112;50.986;4.354;2022-07-22T15:03:07;27.70;95.30
25138;DHT22;13112;50.986;4.354;2022-07-22T15:05:32;27.90;95.00
25138;DHT22;13112;50.986;4.354;2022-07-22T15:07:58;27.70;95.00
25138;DHT22;13112;50.986;4.354;2022-07-22T15:10:24;27.60;94.90
25138;DHT22;13112;50.986;4.354;2022-07-22T15:12:49;27.50;95.00
25138;DHT22;13112;50.986;4.354;2022-07-22T15:15:15;27.40;95.60
25138;DHT22;13112;50.986;4.354;2022-07-22T15:17:41;27.30;95.30
25138;DHT22;13112;50.986;4.354;2022-07-22T15:20:08;27.20;95.70
25138;DHT22;13112;50.986;4.354;2022-07-22T15:22:34;27.10;95.80
25138;DHT22;13112;50.986;4.354;2022-07-22T15:25:00;27.30;96.00
25138;DHT22;13112;50.986;4.354;2022-07-22T15:27:26;27.40;96.50
25138;DHT22;13112;50.986;4.354;2022-07-22T15:29:52;27.40;95.10
25138;DHT22;13112;50.986;4.354;2022-07-22T15:32:18;27.30;95.80
25138;DHT22;13112;50.986;4.354;2022-07-22T15:34:43;27.10;95.60
25138;DHT22;13112;50.986;4.354;2022-07-22T15:37:10;26.90;95.70
25138;DHT22;13112;50.986;4.354;2022-07-22T15:39:36;26.90;96.00
25138;DHT22;13112;50.986;4.354;2022-07-22T15:42:02;26.80;95.80
25138;DHT22;13112;50.986;4.354;2022-07-22T15:44:28;26.90;96.10
25138;DHT22;13112;50.986;4.354;2022-07-22T15:46:54;27.00;96.10
25138;DHT22;13112;50.986;4.354;2022-07-22T15:49:23;26.90;95.90
25138;DHT22;13112;50.986;4.354;2022-07-22T15:51:49;26.90;96.70
25138;DHT22;13112;50.986;4.354;2022-07-22T15:54:15;26.90;96.80